Time;durP1;ratioP1;P1;durP2;ratioP2;P2;SDS_P1;SDS_P2;PMS_P1;PMS_P2;Temp;Humidity;BMP_temperature;BMP_pressure;BME280_temperature;BME280_humidity;BME280_pressure;Samples;Min_cycle;Max_cycle;Signal;HPM_P1;HPM_P2
2021/10/22 06:21:35;;;;;;;7.70;1.17;;;18.10;67.40;;;;;;5336975;24;20051;-73
2021/10/22 06:24:02;;;;;;;11.98;2.45;;;18.20;67.80;;;;;;4785310;29;20051;-71
2021/10/22 06:26:42;;;;;;;6.85;1.50;;;18.30;68.20;;;;;;4792220;29;20055;-82
2021/10/22 06:29:13;;;;;;;7.88;1.80;;;18.30;68.10;;;;;;4776175;30;20489;-75
2021/10/22 06:31:41;;;;;;;11.38;1.52;;;18.30;68.30;;;;;;4792805;29;20363;-80
2021/10/22 06:34:08;;;;;;;8.48;1.42;;;18.40;68.00;;;;;;4791876;30;20120;-74
2021/10/22 06:36:35;;;;;;;7.35;1.30;;;18.40;68.00;;;;;;4791791;30;20479;-76
2021/10/22 06:39:02;;;;;;;8.50;1.38;;;18.40;67.80;;;;;;4776171;30;20128;-70
2021/10/22 06:41:28;;;;;;;11.05;1.95;;;18.40;68.10;;;;;;4791980;29;20047;-72
2021/10/22 06:43:54;;;;;;;8.20;1.30;;;18.40;68.00;;;;;;4790892;29;20463;-78
2021/10/22 06:46:20;;;;;;;10.02;1.80;;;18.30;66.40;;;;;;4776432;30;20067;-72
2021/10/22 06:48:46;;;;;;;21.30;2.42;;;18.30;67.10;;;;;;4791913;29;20051;-73
2021/10/22 06:51:14;;;;;;;10.82;2.05;;;18.30;66.70;;;;;;4791589;30;20134;-73
2021/10/22 06:53:39;;;;;;;14.40;1.80;;;18.30;66.50;;;;;;4790860;30;20147;-73
2021/10/22 06:56:06;;;;;;;13.05;1.65;;;18.20;66.60;;;;;;4792042;30;20108;-73
2021/10/22 06:58:33;;;;;;;17.70;1.95;;;18.20;66.70;;;;;;4775768;30;20055;-72
2021/10/22 07:01:01;;;;;;;14.25;2.20;;;18.20;66.70;;;;;;4791225;30;20495;-72
2021/10/22 07:03:36;;;;;;;12.00;1.67;;;18.30;66.90;;;;;;4791238;30;20057;-73
2021/10/22 07:07:14;;;;;;;14.88;2.42;;;18.30;66.90;;;;;;4791852;29;20047;-73
2021/10/22 07:08:48;;;;;;;12.55;2.00;;;18.30;67.10;;;;;;4791032;30;20055;-73
2021/10/22 07:11:16;;;;;;;13.70;1.80;;;18.20;66.90;;;;;;4791028;29;20055;-72
2021/10/22 07:13:42;;;;;;;8.38;2.03;;;18.30;67.00;;;;;;4790968;30;20058;-72
2021/10/22 07:16:07;;;;;;;14.13;1.63;;;18.30;67.00;;;;;;4790954;29;20055;-73
2021/10/22 07:18:33;;;;;;;13.43;1.77;;;18.30;66.90;;;;;;4790896;30;20050;-72
2021/10/22 07:20:59;;;;;;;14.43;1.90;;;18.40;66.70;;;;;;4791158;30;20108;-72
2021/10/22 07:23:28;;;;;;;12.75;2.00;;;18.40;66.70;;;;;;4806034;29;20141;-74
2021/10/22 07:25:54;;;;;;;12.73;1.42;;;18.40;66.70;;;;;;4808970;29;20050;-73
2021/10/22 07:28:20;;;;;;;13.85;1.80;;;18.10;62.60;;;;;;4809037;29;20142;-76
2021/10/22 07:30:48;;;;;;;18.20;1.95;;;17.80;66.40;;;;;;4809275;29;20058;-75
2021/10/22 07:33:16;;;;;;;9.55;1.40;;;18.00;67.00;;;;;;4808804;29;20473;-74
2021/10/22 07:35:42;;;;;;;12.60;1.40;;;18.10;67.20;;;;;;4808964;29;20059;-74
2021/10/22 07:38:12;;;;;;;15.35;2.38;;;18.10;67.10;;;;;;4792924;29;20542;-75
2021/10/22 07:40:40;;;;;;;12.38;1.90;;;18.20;67.10;;;;;;4809035;29;20051;-75
2021/10/22 07:43:06;;;;;;;10.50;1.80;;;18.20;67.00;;;;;;4808925;29;20523;-75
2021/10/22 07:45:32;;;;;;;5.97;1.25;;;18.20;67.00;;;;;;4808939;29;20047;-75
2021/10/22 07:47:58;;;;;;;6.50;1.75;;;18.20;67.10;;;;;;4806453;29;20074;-75
2021/10/22 07:50:24;;;;;;;11.13;1.70;;;18.30;67.20;;;;;;4797268;29;20474;-73
2021/10/22 07:52:50;;;;;;;9.70;2.33;;;17.80;63.60;;;;;;4808553;29;20370;-75
2021/10/22 07:55:15;;;;;;;9.85;1.73;;;17.30;64.80;;;;;;4807872;29;20061;-76
2021/10/22 07:57:41;;;;;;;9.38;1.80;;;17.10;67.30;;;;;;4808697;29;20059;-76
2021/10/22 08:00:10;;;;;;;16.20;1.80;;;17.30;68.70;;;;;;4808666;29;20142;-77
2021/10/22 08:02:36;;;;;;;14.93;2.08;;;17.50;68.80;;;;;;4808590;29;20126;-73
2021/10/22 08:05:03;;;;;;;13.75;2.15;;;17.70;68.60;;;;;;4804353;29;20047;-74
2021/10/22 08:07:33;;;;;;;15.50;2.22;;;17.90;68.30;;;;;;4789880;30;20051;-76
2021/10/22 08:10:00;;;;;;;10.00;2.13;;;17.90;68.00;;;;;;4790304;30;20059;-75
2021/10/22 08:12:26;;;;;;;11.38;1.98;;;18.00;67.80;;;;;;4774595;30;20086;-76
2021/10/22 08:14:53;;;;;;;10.20;1.65;;;18.10;67.70;;;;;;4790022;30;20128;-78
2021/10/22 08:17:20;;;;;;;10.90;1.83;;;18.10;67.70;;;;;;4790548;30;20489;-78
2021/10/22 08:19:52;;;;;;;11.40;1.50;;;18.20;67.70;;;;;;4790515;30;20051;-74
2021/10/22 08:22:26;;;;;;;8.90;1.80;;;18.30;67.50;;;;;;4790382;29;20067;-75
2021/10/22 08:25:13;;;;;;;10.13;2.10;;;18.30;67.50;;;;;;4774826;30;20610;-71
2021/10/22 08:27:47;;;;;;;10.07;2.10;;;18.30;66.70;;;;;;4790199;30;20067;-72
2021/10/22 08:30:15;;;;;;;;;;;18.30;66.40;;;;;;4789897;30;20089;-73
2021/10/22 08:32:41;;;;;;;8.90;2.20;;;18.30;66.10;;;;;;4789644;30;19995;-72
2021/10/22 08:35:09;;;;;;;10.70;2.08;;;18.30;66.20;;;;;;4789403;30;20051;-72
2021/10/22 08:37:36;;;;;;;10.48;2.03;;;18.40;66.30;;;;;;4788865;30;20070;-71
2021/10/22 08:40:04;;;;;;;14.43;2.25;;;18.40;66.40;;;;;;4790480;30;20062;-73
2021/10/22 08:42:29;;;;;;;14.25;1.95;;;18.40;66.30;;;;;;4790120;30;20126;-73
2021/10/22 08:44:56;;;;;;;11.15;1.98;;;18.40;66.30;;;;;;4790102;30;20566;-74
2021/10/22 08:47:31;;;;;;;11.77;2.60;;;18.40;66.40;;;;;;4789277;30;20478;-73
2021/10/22 08:49:59;;;;;;;10.20;2.00;;;18.40;66.30;;;;;;4790038;30;20066;-72
2021/10/22 08:52:26;;;;;;;10.30;1.83;;;18.50;66.40;;;;;;4789846;30;20141;-74
2021/10/22 08:54:52;;;;;;;11.60;2.70;;;18.50;66.50;;;;;;4778397;30;20051;-76
2021/10/22 08:57:18;;;;;;;11.00;1.98;;;18.50;66.50;;;;;;4786025;30;20139;-73
2021/10/22 08:59:44;;;;;;;12.02;2.03;;;18.50;66.50;;;;;;4789614;30;20094;-72
2021/10/22 09:02:25;;;;;;;12.82;2.33;;;18.40;66.20;;;;;;4789482;30;20128;-72
2021/10/22 09:05:04;;;;;;;12.98;2.08;;;18.50;66.10;;;;;;4789643;30;20066;-72
2021/10/22 09:37:57;;;;;;;11.55;1.50;;;18.50;66.90;;;;;;5698156;24;20065;-71
2021/10/22 09:40:29;;;;;;;21.05;2.92;;;18.30;63.20;;;;;;4774093;30;20063;-71
2021/10/22 09:42:55;;;;;;;14.32;1.98;;;17.80;66.50;;;;;;4774921;30;20048;-71
2021/10/22 09:45:26;;;;;;;8.77;2.08;;;17.90;67.60;;;;;;4759922;30;20107;-72
2021/10/22 09:47:51;;;;;;;13.75;2.38;;;18.00;67.90;;;;;;4774832;30;20130;-72
2021/10/22 09:50:25;;;;;;;4.95;1.25;;;18.00;67.80;;;;;;4774488;30;20131;-72
2021/10/22 09:52:51;;;;;;;;;;;18.10;67.70;;;;;;4775379;30;20100;-72
2021/10/22 09:55:19;;;;;;;7.00;1.50;;;18.20;67.60;;;;;;4775644;30;20160;-72
2021/10/22 09:58:02;;;;;;;6.00;1.30;;;18.20;67.50;;;;;;4774634;30;20055;-72
2021/10/22 10:00:33;;;;;;;6.32;1.10;;;18.30;67.30;;;;;;4759017;30;20357;-72
2021/10/22 10:03:01;;;;;;;9.80;1.75;;;18.30;67.50;;;;;;4774565;30;20051;-71
2021/10/22 10:05:27;;;;;;;5.53;1.55;;;18.30;66.90;;;;;;4774858;30;20203;-72
2021/10/22 10:07:54;;;;;;;7.57;1.30;;;18.30;66.90;;;;;;4774832;30;20126;-73
2021/10/22 10:10:20;;;;;;;10.30;1.40;;;18.40;66.90;;;;;;4774561;30;20089;-72
2021/10/22 10:12:46;;;;;;;6.93;1.60;;;18.20;66.50;;;;;;4774092;30;20055;-72
2021/10/22 10:15:12;;;;;;;8.90;1.65;;;18.20;66.90;;;;;;4774301;30;20047;-72
2021/10/22 10:17:50;;;;;;;4.88;1.00;;;18.30;66.80;;;;;;4773738;30;20056;-72
2021/10/22 10:20:21;;;;;;;6.45;1.33;;;18.30;66.70;;;;;;4773772;30;20058;-73
2021/10/22 10:22:48;;;;;;;7.60;1.75;;;18.40;66.70;;;;;;4774077;30;20368;-72
2021/10/22 10:25:18;;;;;;;10.40;1.98;;;18.10;66.30;;;;;;4774096;30;20087;-72
2021/10/22 10:27:47;;;;;;;17.98;2.08;;;18.20;66.80;;;;;;4774172;30;20450;-74
2021/10/22 10:30:26;;;;;;;9.38;1.40;;;18.30;66.90;;;;;;4782868;30;20106;-69
2021/10/22 10:32:52;;;;;;;6.95;1.38;;;18.40;66.90;;;;;;4774623;30;20055;-70
2021/10/22 10:35:17;;;;;;;9.23;1.60;;;18.30;66.70;;;;;;4774072;30;20341;-70
2021/10/22 10:37:52;;;;;;;12.40;1.60;;;18.30;66.60;;;;;;4773968;30;20067;-70
2021/10/22 10:40:29;;;;;;;12.85;1.80;;;18.30;66.60;;;;;;4773950;30;20064;-70
2021/10/22 10:43:00;;;;;;;7.88;1.83;;;18.30;66.60;;;;;;4773792;30;20091;-70
2021/10/22 10:45:26;;;;;;;9.95;1.45;;;18.30;66.70;;;;;;4774081;30;20055;-70
2021/10/22 10:47:58;;;;;;;7.60;1.38;;;18.30;66.80;;;;;;4774009;30;20082;-70
2021/10/22 10:50:26;;;;;;;6.78;1.42;;;18.20;66.60;;;;;;4773579;30;20388;-70
2021/10/22 10:52:58;;;;;;;4.80;1.42;;;18.20;66.80;;;;;;4773851;30;20059;-70
2021/10/22 10:55:39;;;;;;;10.90;1.85;;;18.20;66.80;;;;;;4791712;30;20093;-70
2021/10/22 10:58:09;;;;;;;6.45;1.38;;;18.20;66.90;;;;;;4791748;30;20128;-71
2021/10/22 11:00:39;;;;;;;6.55;1.05;;;18.10;66.90;;;;;;4790883;30;20055;-70
2021/10/22 11:03:06;;;;;;;7.75;1.35;;;18.10;67.00;;;;;;4776197;30;20051;-70
2021/10/22 11:08:25;;;;;;;7.97;1.05;;;18.10;66.90;;;;;;4791587;30;20055;-70
2021/10/22 11:11:01;;;;;;;5.60;1.25;;;18.00;67.00;;;;;;4791187;30;20055;-70
2021/10/22 11:13:42;;;;;;;5.65;0.80;;;18.00;67.20;;;;;;4791412;30;20370;-68
2021/10/22 11:16:23;;;;;;;6.18;0.88;;;17.90;67.00;;;;;;4791279;30;20051;-71
2021/10/22 11:18:58;;;;;;;9.13;1.55;;;17.90;67.50;;;;;;4779351;30;20056;-70
2021/10/22 11:21:28;;;;;;;4.80;1.20;;;17.90;67.40;;;;;;4772811;30;20467;-70
2021/10/22 11:23:58;;;;;;;6.35;1.38;;;17.90;67.60;;;;;;4773043;30;20067;-70
2021/10/22 11:26:24;;;;;;;4.38;1.20;;;17.80;67.50;;;;;;4773200;30;20055;-70
2021/10/22 11:28:55;;;;;;;8.13;1.40;;;17.90;67.70;;;;;;4773413;30;20066;-70
2021/10/22 11:31:45;;;;;;;7.53;1.08;;;17.80;67.60;;;;;;4773440;30;20055;-71
2021/10/22 11:34:30;;;;;;;6.13;0.88;;;17.80;67.10;;;;;;4773036;30;20191;-70
2021/10/22 11:37:04;;;;;;;6.07;0.90;;;17.70;67.30;;;;;;4772898;30;20058;-70
2021/10/22 11:39:39;;;;;;;5.60;1.10;;;17.70;67.80;;;;;;4772139;30;20169;-70
2021/10/22 11:42:16;;;;;;;8.10;1.20;;;17.70;67.90;;;;;;4773915;30;20113;-70
2021/10/22 11:44:46;;;;;;;5.68;1.10;;;17.70;67.80;;;;;;4772837;30;20063;-70
2021/10/22 11:47:12;;;;;;;5.05;1.00;;;17.70;68.00;;;;;;4772678;30;20095;-70
2021/10/22 11:49:39;;;;;;;5.63;0.90;;;17.70;68.00;;;;;;4772664;30;20062;-70
2021/10/22 11:52:11;;;;;;;6.65;1.10;;;17.70;68.10;;;;;;4781987;30;20066;-70
2021/10/22 11:54:43;;;;;;;7.00;1.23;;;17.70;67.90;;;;;;4772700;30;20047;-71
2021/10/22 11:57:10;;;;;;;8.13;1.33;;;17.60;68.00;;;;;;4773017;30;20051;-71
2021/10/22 11:59:43;;;;;;;37.08;2.70;;;17.60;68.10;;;;;;4772453;30;20047;-73
2021/10/22 12:02:09;;;;;;;8.75;0.98;;;17.60;67.60;;;;;;4772494;30;20604;-77
2021/10/22 12:04:36;;;;;;;7.13;0.90;;;17.50;68.20;;;;;;4788280;30;20059;-76
2021/10/22 12:07:07;;;;;;;6.28;0.95;;;17.50;68.40;;;;;;4790476;30;20055;-74
2021/10/22 12:09:39;;;;;;;6.32;0.93;;;17.50;68.40;;;;;;4776979;29;20482;-76
2021/10/22 12:12:23;;;;;;;5.35;1.00;;;17.50;68.50;;;;;;4808635;29;20069;-76
2021/10/22 12:14:50;;;;;;;8.07;0.90;;;17.60;69.10;;;;;;4788312;29;20109;-75
2021/10/22 12:17:24;;;;;;;6.95;1.33;;;17.60;68.60;;;;;;4775779;29;20058;-76
2021/10/22 12:19:53;;;;;;;8.52;1.30;;;17.60;68.60;;;;;;4772765;30;20091;-77
2021/10/22 12:22:29;;;;;;;7.68;1.25;;;17.60;68.50;;;;;;4786235;29;20062;-76
2021/10/22 12:24:57;;;;;;;10.30;1.50;;;17.60;68.50;;;;;;4774042;29;20035;-75
2021/10/22 12:27:27;;;;;;;10.52;1.35;;;17.60;68.50;;;;;;4790130;29;20051;-76
2021/10/22 12:30:03;;;;;;;11.77;2.60;;;17.60;68.50;;;;;;4779372;30;20476;-74
2021/10/22 12:32:49;;;;;;;6.75;1.40;;;17.60;68.50;;;;;;4781775;29;20055;-75
2021/10/22 12:35:18;;;;;;;5.60;0.93;;;17.70;68.30;;;;;;4769450;30;20055;-76
2021/10/22 12:37:46;;;;;;;9.35;1.65;;;17.60;68.50;;;;;;4781865;29;20503;-75
2021/10/22 12:40:24;;;;;;;7.30;1.75;;;17.60;68.70;;;;;;4773883;30;20503;-74
2021/10/22 12:43:09;;;;;;;7.07;1.60;;;17.60;68.90;;;;;;4772632;30;20051;-74
2021/10/22 12:45:58;;;;;;;10.25;1.77;;;17.60;69.50;;;;;;4777313;29;20097;-75
2021/10/22 12:48:46;;;;;;;9.07;1.45;;;17.60;68.90;;;;;;4775345;29;20063;-77
2021/10/22 12:51:21;;;;;;;8.60;1.67;;;17.50;67.30;;;;;;4783402;29;20067;-72
2021/10/22 12:53:49;;;;;;;8.65;1.42;;;17.50;69.30;;;;;;4772186;30;20372;-74
2021/10/22 12:56:25;;;;;;;8.60;1.23;;;17.50;69.70;;;;;;4772570;30;20059;-75
2021/10/22 12:59:06;;;;;;;7.13;1.40;;;17.50;69.90;;;;;;4772165;30;20070;-75
2021/10/22 13:01:35;;;;;;;8.68;1.67;;;17.50;70.30;;;;;;4771851;30;20058;-75
2021/10/22 13:04:06;;;;;;;7.53;1.00;;;17.60;70.10;;;;;;4771515;30;20052;-75
2021/10/22 13:22:47;;;;;;;7.38;0.95;;;18.10;69.00;;;;;;4807381;29;20486;-75
2021/10/22 13:25:13;;;;;;;8.25;1.60;;;18.20;68.80;;;;;;4807484;29;20131;-76
2021/10/22 13:27:39;;;;;;;12.40;1.95;;;18.30;68.80;;;;;;4802795;29;20055;-75
2021/10/22 13:30:15;;;;;;;6.90;1.52;;;18.30;68.80;;;;;;4789025;30;20161;-76
2021/10/22 13:32:42;;;;;;;10.48;1.83;;;18.40;68.90;;;;;;4789788;30;20142;-74
2021/10/22 13:35:08;;;;;;;19.13;1.83;;;18.50;69.00;;;;;;4774106;30;20051;-76
2021/10/22 13:37:36;;;;;;;24.25;2.10;;;18.50;69.20;;;;;;4773630;30;20059;-74
2021/10/22 13:40:04;;;;;;;15.35;1.40;;;18.50;68.80;;;;;;4777004;29;20117;-75
2021/10/22 13:42:29;;;;;;;6.43;1.05;;;18.50;67.50;;;;;;4807628;29;20082;-74
2021/10/22 13:44:55;;;;;;;10.23;1.63;;;18.50;67.00;;;;;;4806737;29;20086;-76
2021/10/22 13:47:21;;;;;;;9.52;1.30;;;18.50;66.90;;;;;;4808211;29;20055;-75
2021/10/22 13:49:46;;;;;;;13.57;1.35;;;18.50;67.00;;;;;;4807233;29;20043;-77
2021/10/22 13:52:12;;;;;;;10.45;1.92;;;18.50;67.10;;;;;;4807674;29;20093;-76
2021/10/22 13:54:38;;;;;;;12.18;1.83;;;18.50;67.20;;;;;;4810933;29;20054;-77
2021/10/22 13:57:05;;;;;;;8.90;1.05;;;18.50;67.40;;;;;;4794750;29;20054;-75
2021/10/22 13:59:37;;;;;;;8.68;1.17;;;18.40;67.40;;;;;;4810977;29;20090;-76
2021/10/22 14:02:03;;;;;;;9.60;1.30;;;18.40;67.50;;;;;;4793491;29;20050;-77
2021/10/22 14:04:29;;;;;;;6.30;1.02;;;18.40;67.60;;;;;;4810458;29;20363;-75
2021/10/22 14:06:55;;;;;;;5.50;1.23;;;18.40;67.60;;;;;;4810765;29;20065;-76
2021/10/22 14:09:21;;;;;;;13.25;2.17;;;18.30;67.70;;;;;;4810756;29;20534;-75
2021/10/22 14:11:53;;;;;;;5.45;1.02;;;18.30;67.80;;;;;;4810240;29;20127;-75
2021/10/22 14:17:23;;;;;;;5.97;1.10;;;18.30;68.00;;;;;;4810667;29;20066;-74
2021/10/22 14:20:13;;;;;;;3.20;0.82;;;18.20;68.00;;;;;;4810301;29;20475;-75
2021/10/22 14:30:53;;;;;;;6.75;0.98;;;18.10;68.20;;;;;;4792262;30;20106;-76
2021/10/22 14:33:19;;;;;;;3.50;1.00;;;18.10;68.30;;;;;;4792229;30;20483;-76
2021/10/22 14:35:44;;;;;;;5.22;0.90;;;18.10;68.30;;;;;;4776407;30;20496;-74
2021/10/22 14:38:10;;;;;;;5.13;1.00;;;18.00;68.30;;;;;;4792421;30;20139;-75
2021/10/22 14:40:38;;;;;;;2.90;0.73;;;18.00;68.40;;;;;;4791712;30;20065;-76
2021/10/22 14:43:06;;;;;;;6.75;1.48;;;18.00;68.40;;;;;;4791806;30;20064;-76
2021/10/22 14:45:41;;;;;;;4.82;1.00;;;18.00;68.50;;;;;;4775893;30;20496;-75
2021/10/22 14:48:14;;;;;;;5.07;1.23;;;18.00;68.70;;;;;;4792471;30;20134;-77
2021/10/22 14:50:42;;;;;;;5.38;1.23;;;18.00;68.60;;;;;;4795506;29;20062;-76
2021/10/22 14:56:06;;;;;;;8.57;1.13;;;17.90;68.70;;;;;;4779067;29;20088;-76
2021/10/22 14:58:32;;;;;;;5.72;1.05;;;18.00;68.70;;;;;;4809649;29;20084;-76
2021/10/22 15:01:02;;;;;;;5.35;1.10;;;17.90;68.60;;;;;;4810238;29;20054;-75
2021/10/22 15:03:28;;;;;;;6.18;1.38;;;17.90;68.70;;;;;;4809649;29;20367;-75
2021/10/22 15:05:54;;;;;;;5.22;1.15;;;17.90;68.80;;;;;;4809523;29;20059;-75
2021/10/22 15:08:20;;;;;;;2.55;0.50;;;17.80;68.70;;;;;;4810276;29;20055;-76
2021/10/22 15:10:50;;;;;;;3.13;0.70;;;17.80;68.80;;;;;;4810241;29;20058;-77
2021/10/22 15:13:17;;;;;;;3.28;0.85;;;17.80;68.80;;;;;;4809248;29;20047;-76
2021/10/22 15:15:43;;;;;;;3.15;0.80;;;17.80;69.00;;;;;;4799941;29;20055;-76
2021/10/22 15:18:08;;;;;;;3.92;1.00;;;17.80;68.90;;;;;;4775347;30;20583;-74
2021/10/22 15:20:36;;;;;;;3.80;0.90;;;17.80;69.00;;;;;;4800818;29;20062;-75
2021/10/22 15:23:02;;;;;;;4.28;0.93;;;17.80;69.00;;;;;;4809485;29;20362;-76
2021/10/22 15:25:28;;;;;;;3.95;0.95;;;17.80;69.00;;;;;;4809008;29;20050;-75
2021/10/22 15:27:54;;;;;;;3.22;1.25;;;17.70;69.00;;;;;;4794074;29;20073;-76
2021/10/22 15:30:20;;;;;;;3.95;1.10;;;17.70;69.20;;;;;;4809026;29;20059;-76
2021/10/22 15:32:46;;;;;;;4.50;1.08;;;17.70;69.10;;;;;;4809517;29;20066;-76
2021/10/22 15:35:12;;;;;;;3.47;0.80;;;17.70;69.10;;;;;;4809396;29;20368;-75
2021/10/22 15:37:39;;;;;;;4.90;1.13;;;17.70;69.10;;;;;;4809790;29;20133;-76
2021/10/22 15:40:06;;;;;;;3.10;0.80;;;17.70;69.10;;;;;;4799217;29;20059;-76
2021/10/22 15:42:32;;;;;;;4.93;1.00;;;17.70;69.10;;;;;;4790687;30;20066;-76
2021/10/22 15:44:58;;;;;;;6.25;1.23;;;17.70;69.10;;;;;;4790895;30;20055;-76
2021/10/22 15:47:24;;;;;;;6.85;1.20;;;17.60;69.00;;;;;;4791095;30;20133;-75
2021/10/22 15:49:57;;;;;;;6.68;1.30;;;17.70;69.10;;;;;;4791081;30;20055;-76
2021/10/22 15:52:26;;;;;;;5.63;1.23;;;17.60;69.10;;;;;;4790996;30;20078;-75
2021/10/22 15:54:52;;;;;;;4.78;1.10;;;17.70;69.10;;;;;;4790360;30;20456;-77
2021/10/22 15:57:22;;;;;;;4.53;0.85;;;17.70;69.10;;;;;;4791030;30;20059;-74
2021/10/22 15:59:49;;;;;;;7.68;1.42;;;17.70;69.20;;;;;;4775631;29;20047;-75
2021/10/22 16:02:15;;;;;;;4.70;0.90;;;17.60;69.10;;;;;;4795597;29;20061;-74
2021/10/22 16:04:41;;;;;;;3.92;1.02;;;17.70;69.10;;;;;;4808594;29;20463;-75
2021/10/22 16:09:57;;;;;;;5.60;1.02;;;17.60;68.70;;;;;;4808701;29;20051;-76
2021/10/22 16:17:17;;;;;;;7.40;1.00;;;17.70;68.90;;;;;;4808060;29;20066;-76
2021/10/22 16:19:42;;;;;;;6.88;1.25;;;17.70;69.00;;;;;;4807903;29;20459;-75
2021/10/22 16:22:08;;;;;;;4.45;1.33;;;17.70;69.10;;;;;;4808901;29;20050;-77
2021/10/22 16:24:35;;;;;;;5.93;1.35;;;17.70;69.30;;;;;;4808303;29;20370;-76
2021/10/22 16:27:02;;;;;;;7.07;1.30;;;17.70;69.40;;;;;;4783107;30;20059;-77
2021/10/22 16:29:31;;;;;;;8.07;0.90;;;17.60;69.30;;;;;;4789645;29;20419;-77
2021/10/22 16:31:57;;;;;;;8.35;1.15;;;17.50;68.50;;;;;;4789325;30;20075;-79
2021/10/22 16:37:08;;;;;;;8.55;1.25;;;17.20;69.20;;;;;;4789794;30;20055;-80
2021/10/22 16:39:34;;;;;;;13.02;1.33;;;17.20;69.50;;;;;;4773754;30;20063;-80
2021/10/22 16:42:01;;;;;;;4.78;0.98;;;17.10;69.90;;;;;;4790094;30;20348;-79
2021/10/22 16:44:28;;;;;;;8.10;1.45;;;17.00;70.20;;;;;;4771933;30;20051;-80
2021/10/22 16:46:53;;;;;;;4.97;0.80;;;16.90;70.40;;;;;;4789770;30;20193;-78
2021/10/22 16:49:19;;;;;;;5.88;0.82;;;16.80;70.60;;;;;;4774252;30;20051;-78
2021/10/22 16:51:52;;;;;;;4.78;1.13;;;16.90;70.80;;;;;;4774017;30;20055;-80
2021/10/22 16:54:19;;;;;;;4.88;0.70;;;16.90;70.90;;;;;;4773444;30;20066;-80
2021/10/22 16:56:48;;;;;;;8.75;1.27;;;16.80;71.00;;;;;;4773818;30;20087;-81
2021/10/22 16:59:15;;;;;;;4.15;1.05;;;16.80;71.20;;;;;;4774022;30;20098;-81
2021/10/22 17:01:41;;;;;;;5.15;1.02;;;16.80;71.40;;;;;;4773573;30;20054;-80
2021/10/22 17:04:07;;;;;;;9.32;1.52;;;16.80;71.50;;;;;;4774176;30;20066;-79
2021/10/22 17:06:33;;;;;;;7.43;1.30;;;16.90;71.70;;;;;;4774232;30;20085;-80
2021/10/22 17:08:58;;;;;;;6.75;1.10;;;16.90;71.60;;;;;;4774481;30;20059;-79
2021/10/22 17:11:24;;;;;;;6.75;1.10;;;16.90;71.40;;;;;;4774118;30;20442;-79
2021/10/22 17:13:50;;;;;;;4.72;1.25;;;17.00;71.30;;;;;;4789669;30;20138;-79
2021/10/22 17:16:16;;;;;;;4.20;1.05;;;17.00;71.20;;;;;;4786466;29;20062;-79
2021/10/22 17:18:42;;;;;;;3.22;0.82;;;17.00;71.00;;;;;;4792089;29;20137;-80
2021/10/22 17:21:07;;;;;;;5.38;1.30;;;17.10;71.00;;;;;;4791914;29;20216;-79
2021/10/22 17:23:34;;;;;;;6.10;1.17;;;17.10;71.00;;;;;;4791333;29;20054;-79
2021/10/22 17:26:00;;;;;;;4.88;0.85;;;17.20;71.00;;;;;;4791811;29;20097;-77
2021/10/22 17:28:27;;;;;;;3.42;0.98;;;17.20;70.80;;;;;;4810669;29;20382;-79
2021/10/22 17:30:53;;;;;;;8.68;1.35;;;17.20;70.80;;;;;;4795317;29;20050;-78
2021/10/22 17:33:20;;;;;;;7.45;0.90;;;17.20;71.30;;;;;;4811202;29;20119;-79
2021/10/22 17:35:46;;;;;;;5.60;0.90;;;17.20;70.50;;;;;;4810937;29;20051;-79
2021/10/22 17:38:13;;;;;;;4.03;0.80;;;17.20;71.00;;;;;;4795952;29;20065;-79
2021/10/22 17:40:39;;;;;;;6.63;1.15;;;17.20;70.80;;;;;;4791316;29;20127;-78
2021/10/22 17:43:05;;;;;;;4.03;0.93;;;17.20;70.30;;;;;;4795511;29;20143;-79
2021/10/22 17:45:31;;;;;;;5.95;0.90;;;17.20;70.30;;;;;;4810859;29;20093;-79
2021/10/22 17:47:57;;;;;;;6.82;1.48;;;17.30;70.20;;;;;;4810969;29;20094;-77
2021/10/22 17:50:23;;;;;;;3.53;0.85;;;17.30;70.20;;;;;;4804862;29;20055;-78
2021/10/22 17:52:49;;;;;;;5.75;1.27;;;17.30;70.10;;;;;;4794621;29;20128;-79
2021/10/22 17:55:15;;;;;;;6.63;1.10;;;17.30;70.00;;;;;;4792804;30;20128;-78
2021/10/22 17:57:41;;;;;;;6.30;0.95;;;17.30;70.00;;;;;;4776586;30;20391;-79
2021/10/22 18:00:07;;;;;;;5.40;1.20;;;17.30;70.10;;;;;;4792898;30;20134;-80
2021/10/22 18:02:34;;;;;;;6.10;0.95;;;17.30;70.10;;;;;;4777082;30;20073;-79
2021/10/22 18:05:00;;;;;;;4.88;0.98;;;17.30;70.10;;;;;;4777017;30;20094;-79
2021/10/22 18:07:26;;;;;;;7.40;1.15;;;17.20;70.10;;;;;;4776748;30;20094;-77
2021/10/22 18:09:52;;;;;;;5.13;1.27;;;17.20;70.10;;;;;;4792378;30;20047;-78
2021/10/22 18:12:18;;;;;;;3.47;0.90;;;17.20;70.10;;;;;;4792641;30;20344;-79
2021/10/22 18:14:43;;;;;;;4.68;1.23;;;17.20;70.10;;;;;;4776424;30;20518;-79
2021/10/22 18:17:11;;;;;;;4.70;0.88;;;17.30;70.20;;;;;;4805642;29;20051;-78
2021/10/22 18:19:37;;;;;;;8.77;1.05;;;17.30;70.10;;;;;;4794495;29;20142;-80
2021/10/22 18:22:03;;;;;;;6.40;0.60;;;17.30;69.90;;;;;;4789781;30;20387;-80
2021/10/22 18:24:29;;;;;;;5.95;1.40;;;17.30;69.70;;;;;;4781860;30;20047;-79
2021/10/22 18:26:54;;;;;;;5.57;1.27;;;17.30;69.60;;;;;;4786208;30;20060;-79
2021/10/22 18:29:25;;;;;;;5.63;0.88;;;17.30;69.40;;;;;;4792348;30;20205;-81
2021/10/22 18:31:51;;;;;;;5.70;1.35;;;17.30;69.40;;;;;;4792112;30;20387;-80
2021/10/22 18:34:18;;;;;;;2.92;0.85;;;17.30;69.40;;;;;;4783497;30;20066;-80
2021/10/22 18:36:43;;;;;;;5.60;0.80;;;17.30;69.30;;;;;;4792184;30;20419;-79
2021/10/22 18:39:10;;;;;;;4.43;0.90;;;17.30;69.30;;;;;;4775227;30;20124;-79
2021/10/22 18:41:36;;;;;;;5.28;0.80;;;17.30;69.20;;;;;;4775820;30;20367;-79
2021/10/22 18:44:03;;;;;;;3.45;1.00;;;17.30;69.20;;;;;;4760935;30;20054;-79
2021/10/22 18:46:33;;;;;;;5.38;1.08;;;17.30;69.10;;;;;;4791984;30;20370;-79
2021/10/22 18:49:09;;;;;;;4.32;1.15;;;17.30;69.10;;;;;;4776272;30;20063;-80
2021/10/22 18:51:36;;;;;;;5.65;1.23;;;17.30;69.10;;;;;;4775956;30;20093;-79
2021/10/22 18:54:06;;;;;;;4.97;1.10;;;17.30;69.00;;;;;;4776299;30;20440;-79
2021/10/22 18:56:34;;;;;;;6.53;1.00;;;17.30;68.90;;;;;;4793621;29;20501;-78
2021/10/22 18:59:00;;;;;;;3.55;0.90;;;17.30;68.90;;;;;;4810185;29;20054;-79
2021/10/22 19:01:27;;;;;;;4.00;0.75;;;17.30;68.90;;;;;;4794258;29;20058;-79
2021/10/22 19:03:54;;;;;;;4.45;1.33;;;17.30;68.80;;;;;;4793947;29;20055;-78
2021/10/22 19:06:43;;;;;;;2.50;0.50;;;17.20;68.80;;;;;;4793700;29;20050;-79
2021/10/22 19:09:10;;;;;;;3.45;0.85;;;17.20;68.70;;;;;;4793743;29;20191;-80
2021/10/22 19:11:38;;;;;;;4.55;0.98;;;17.30;68.70;;;;;;4794358;29;20099;-78
2021/10/22 19:14:05;;;;;;;5.25;1.00;;;17.30;68.70;;;;;;4757578;30;20060;-81
2021/10/22 19:16:33;;;;;;;3.38;0.70;;;17.20;68.50;;;;;;4742873;30;20126;-80
2021/10/22 19:19:00;;;;;;;7.70;1.13;;;17.20;68.40;;;;;;4773473;30;20052;-80
2021/10/22 19:21:27;;;;;;;8.85;1.25;;;17.20;68.30;;;;;;4757239;30;20134;-80
2021/10/22 19:23:53;;;;;;;12.30;1.27;;;17.20;68.50;;;;;;4757269;30;20060;-82
2021/10/22 19:26:21;;;;;;;12.98;1.70;;;17.20;68.50;;;;;;4743166;30;20376;-81
